createdAt,value
2023-02-21T00:00:45.475Z,9.40
2023-02-21T00:03:26.112Z,9.39
2023-02-21T00:06:06.961Z,9.37
2023-02-21T00:08:47.650Z,9.35
2023-02-21T00:11:29.299Z,9.34
2023-02-21T00:14:10.022Z,9.33
2023-02-21T00:16:50.796Z,9.32
2023-02-21T00:19:31.439Z,9.31
2023-02-21T00:22:13.754Z,9.31
2023-02-21T00:24:54.342Z,9.31
2023-02-21T00:27:35.952Z,9.30
2023-02-21T00:30:16.663Z,9.30
2023-02-21T00:32:57.467Z,9.28
2023-02-21T00:35:38.277Z,9.27
2023-02-21T00:38:19.405Z,9.26
2023-02-21T00:41:00.126Z,9.24
2023-02-21T00:43:45.366Z,9.22
2023-02-21T00:46:26.028Z,9.20
2023-02-21T00:49:06.701Z,9.18
2023-02-21T00:51:47.326Z,9.17
2023-02-21T00:54:29.034Z,9.16
2023-02-21T00:57:09.734Z,9.17
2023-02-21T00:59:49.470Z,9.17
2023-02-21T01:02:30.240Z,9.17
2023-02-21T01:05:10.901Z,9.16
2023-02-21T01:07:51.754Z,9.16
2023-02-21T01:10:32.897Z,9.15
2023-02-21T01:13:13.483Z,9.14
2023-02-21T01:15:55.170Z,9.11
2023-02-21T01:18:35.876Z,9.10
2023-02-21T01:21:16.772Z,9.08
2023-02-21T01:23:57.542Z,9.06
2023-02-21T01:26:38.302Z,9.05
2023-02-21T01:29:19.146Z,9.04
2023-02-21T01:31:59.769Z,9.02
2023-02-21T01:34:39.404Z,9.01
2023-02-21T01:37:21.316Z,9.00
2023-02-21T01:40:01.946Z,9.00
2023-02-21T01:42:42.617Z,8.99
2023-02-21T01:45:37.096Z,8.99
2023-02-21T01:48:18.341Z,9.00
2023-02-21T01:50:59.066Z,9.00
2023-02-21T01:53:40.347Z,9.01
2023-02-21T01:56:21.604Z,9.01
2023-02-21T01:59:05.737Z,9.01
2023-02-21T02:02:13.354Z,9.00
2023-02-21T02:04:56.345Z,9.00
2023-02-21T02:07:37.045Z,8.99
2023-02-21T02:10:19.714Z,8.99
2023-02-21T02:13:14.318Z,8.98
2023-02-21T02:15:55.645Z,8.96
2023-02-21T02:18:36.399Z,8.96
2023-02-21T02:21:25.740Z,8.96
2023-02-21T02:23:52.375Z,8.96
2023-02-21T02:26:34.996Z,8.97
2023-02-21T02:29:29.253Z,8.98
2023-02-21T02:32:28.376Z,8.99
2023-02-21T02:35:11.814Z,9.00
2023-02-21T02:37:44.454Z,9.00
2023-02-21T02:40:43.175Z,9.00
2023-02-21T02:43:13.364Z,8.99
2023-02-21T02:45:48.878Z,8.99
2023-02-21T02:48:22.199Z,8.98
2023-02-21T02:50:51.208Z,8.96
2023-02-21T02:53:25.505Z,8.95
2023-02-21T02:55:58.500Z,8.93
2023-02-21T02:58:32.827Z,8.91
2023-02-21T03:01:14.755Z,8.90
2023-02-21T03:04:11.190Z,8.88
2023-02-21T03:06:58.173Z,8.86
2023-02-21T03:09:45.578Z,8.83
2023-02-21T03:12:46.514Z,8.79
2023-02-21T03:15:21.262Z,8.76
2023-02-21T03:18:14.009Z,8.72
2023-02-21T03:20:42.716Z,8.69
2023-02-21T03:23:13.301Z,8.66
2023-02-21T03:25:41.195Z,8.63
2023-02-21T03:28:08.813Z,8.61
2023-02-21T03:30:36.118Z,8.59
2023-02-21T03:33:03.008Z,8.58
2023-02-21T03:35:30.589Z,8.56
2023-02-21T03:37:58.652Z,8.56
2023-02-21T03:40:30.973Z,8.54
2023-02-21T03:42:59.735Z,8.51
2023-02-21T03:45:26.439Z,8.48
2023-02-21T03:47:53.309Z,8.44
2023-02-21T03:50:19.968Z,8.40
2023-02-21T03:52:46.650Z,8.36
2023-02-21T03:55:13.770Z,8.33
2023-02-21T03:57:40.673Z,8.30
2023-02-21T04:00:08.103Z,8.27
2023-02-21T04:02:34.786Z,8.25
2023-02-21T04:05:01.586Z,8.22
2023-02-21T04:07:28.437Z,8.20
2023-02-21T04:09:55.464Z,8.17
2023-02-21T04:12:22.240Z,8.15
2023-02-21T04:14:49.055Z,8.13
2023-02-21T04:17:17.094Z,8.11
2023-02-21T04:19:43.839Z,8.08
2023-02-21T04:22:10.552Z,8.06
2023-02-21T04:24:37.274Z,8.03
2023-02-21T04:27:04.018Z,8.02
2023-02-21T04:29:30.835Z,8.00
2023-02-21T04:31:57.953Z,7.97
2023-02-21T04:34:25.126Z,7.95
2023-02-21T04:36:51.838Z,7.93
2023-02-21T04:39:18.567Z,7.91
2023-02-21T04:41:45.259Z,7.90
2023-02-21T04:44:13.295Z,7.88
2023-02-21T04:46:40.040Z,7.86
2023-02-21T04:49:06.769Z,7.85
2023-02-21T04:51:33.556Z,7.83
2023-02-21T04:54:00.334Z,7.82
2023-02-21T04:56:28.226Z,7.79
2023-02-21T04:58:55.827Z,7.78
2023-02-21T05:01:23.303Z,7.77
2023-02-21T05:03:50.153Z,7.76
2023-02-21T05:06:21.784Z,7.74
2023-02-21T05:08:48.959Z,7.71
2023-02-21T05:11:16.399Z,7.68
2023-02-21T05:13:43.904Z,7.65
2023-02-21T05:16:11.582Z,7.62
2023-02-21T05:18:41.338Z,7.59
2023-02-21T05:21:08.202Z,7.56
2023-02-21T05:23:36.993Z,7.54
2023-02-21T05:26:05.247Z,7.51
2023-02-21T05:28:32.483Z,7.48
2023-02-21T05:31:01.152Z,7.46
2023-02-21T05:33:28.807Z,7.43
2023-02-21T05:35:55.970Z,7.41
2023-02-21T05:38:24.723Z,7.39
2023-02-21T05:40:52.113Z,7.38
2023-02-21T05:43:18.961Z,7.36
2023-02-21T05:45:46.403Z,7.35
2023-02-21T05:48:13.219Z,7.35
2023-02-21T05:50:40.012Z,7.33
2023-02-21T05:53:07.377Z,7.33
2023-02-21T05:55:34.094Z,7.31
2023-02-21T05:58:00.895Z,7.31
2023-02-21T06:00:30.187Z,7.31
2023-02-21T06:02:57.283Z,7.30
2023-02-21T06:05:24.267Z,7.30
2023-02-21T06:07:51.421Z,7.30
2023-02-21T06:10:19.589Z,7.31
2023-02-21T06:12:46.866Z,7.31
2023-02-21T06:15:13.749Z,7.32
2023-02-21T06:17:41.602Z,7.35
2023-02-21T06:20:12.737Z,7.36
2023-02-21T06:22:39.487Z,7.40
2023-02-21T06:25:06.788Z,7.44
2023-02-21T06:27:33.459Z,7.45
2023-02-21T06:30:00.284Z,7.43
2023-02-21T06:32:27.863Z,7.42
2023-02-21T06:34:54.643Z,7.43
2023-02-21T06:37:21.952Z,7.43
2023-02-21T06:39:48.701Z,7.45
2023-02-21T06:42:16.779Z,7.47
2023-02-21T06:44:45.154Z,7.50
2023-02-21T06:47:11.922Z,7.52
2023-02-21T06:49:38.594Z,7.53
2023-02-21T06:52:06.436Z,7.53
2023-02-21T06:54:33.158Z,7.54
2023-02-21T06:57:01.822Z,7.55
2023-02-21T06:59:29.619Z,7.55
2023-02-21T07:01:57.286Z,7.56
2023-02-21T07:04:24.825Z,7.57
2023-02-21T07:06:52.404Z,7.59
2023-02-21T07:09:19.184Z,7.59
2023-02-21T07:11:47.255Z,7.60
2023-02-21T07:14:14.515Z,7.63
2023-02-21T07:16:41.995Z,7.67
2023-02-21T07:19:08.824Z,7.68
2023-02-21T07:21:35.566Z,7.69
2023-02-21T07:24:02.344Z,7.71
2023-02-21T07:26:29.016Z,7.74
2023-02-21T07:28:55.798Z,7.76
2023-02-21T07:31:23.197Z,7.78
2023-02-21T07:33:50.054Z,7.80
2023-02-21T07:36:17.254Z,7.83
2023-02-21T07:38:44.253Z,7.86
2023-02-21T07:41:11.305Z,7.90
2023-02-21T07:43:39.329Z,7.92
2023-02-21T07:46:14.307Z,7.93
2023-02-21T07:48:41.050Z,7.94
2023-02-21T07:51:08.777Z,7.97
2023-02-21T07:53:35.629Z,8.01
2023-02-21T07:56:04.535Z,8.05
2023-02-21T07:58:32.706Z,8.11
2023-02-21T08:00:59.690Z,8.13
2023-02-21T08:03:26.583Z,8.14
2023-02-21T08:05:53.837Z,8.14
2023-02-21T08:08:20.494Z,8.15
2023-02-21T08:10:47.272Z,8.18
2023-02-21T08:13:14.176Z,8.20
2023-02-21T08:15:40.976Z,8.19
2023-02-21T08:18:18.948Z,8.20
2023-02-21T08:20:45.709Z,8.22
2023-02-21T08:23:12.551Z,8.23
2023-02-21T08:25:39.888Z,8.26
2023-02-21T08:28:06.590Z,8.30
2023-02-21T08:30:33.551Z,8.34
2023-02-21T08:33:00.296Z,8.37
2023-02-21T08:35:27.204Z,8.39
2023-02-21T08:37:57.044Z,8.42
2023-02-21T08:40:24.500Z,8.43
2023-02-21T08:42:53.836Z,8.44
2023-02-21T08:45:22.804Z,8.48
2023-02-21T08:47:51.657Z,8.52
2023-02-21T08:50:20.079Z,8.58
2023-02-21T08:52:48.477Z,8.67
2023-02-21T08:55:16.033Z,8.74
2023-02-21T08:57:43.166Z,8.79
2023-02-21T09:00:13.892Z,8.80
2023-02-21T09:02:40.831Z,8.84
2023-02-21T09:05:10.619Z,8.94
2023-02-21T09:07:38.246Z,9.01
2023-02-21T09:10:06.666Z,9.05
2023-02-21T09:12:38.161Z,9.07
2023-02-21T09:15:06.967Z,9.11
2023-02-21T09:17:34.413Z,9.18
2023-02-21T09:22:55.819Z,9.26
2023-02-21T09:25:25.072Z,9.26
2023-02-21T09:27:54.614Z,9.22
2023-02-21T09:30:26.438Z,9.24
2023-02-21T09:32:55.071Z,9.27
2023-02-21T09:35:23.106Z,9.28
2023-02-21T09:37:49.809Z,9.25
2023-02-21T09:40:29.816Z,9.22
2023-02-21T09:43:00.548Z,9.21
2023-02-21T09:45:38.075Z,9.23
2023-02-21T09:48:11.436Z,9.25
2023-02-21T09:51:08.903Z,9.30
2023-02-21T09:53:40.686Z,9.42
2023-02-21T09:56:30.005Z,9.48
2023-02-21T09:58:59.162Z,9.45
2023-02-21T10:01:47.974Z,9.43
2023-02-21T10:04:18.001Z,9.47
2023-02-21T10:06:57.997Z,9.52
2023-02-21T10:09:41.970Z,9.57
2023-02-21T10:12:24.840Z,9.65
2023-02-21T10:15:16.450Z,9.76
2023-02-21T10:17:57.990Z,9.84
2023-02-21T10:20:35.948Z,9.91
2023-02-21T10:23:06.351Z,9.97
2023-02-21T10:25:37.044Z,10.05
2023-02-21T10:28:04.193Z,10.05
2023-02-21T10:30:40.451Z,10.06
2023-02-21T10:33:08.695Z,10.05
2023-02-21T10:35:39.600Z,10.10
2023-02-21T10:38:17.643Z,10.25
2023-02-21T10:40:45.832Z,10.41
2023-02-21T10:43:32.756Z,10.49
2023-02-21T10:46:10.666Z,10.53
2023-02-21T10:48:41.713Z,10.66
2023-02-21T10:51:28.450Z,10.79
2023-02-21T10:54:23.150Z,10.90
2023-02-21T10:59:37.317Z,10.98
2023-02-21T11:02:33.191Z,10.91
2023-02-21T11:05:29.932Z,10.80
2023-02-21T11:08:03.397Z,10.71
2023-02-21T11:10:34.707Z,10.62
2023-02-21T11:13:04.679Z,10.62
2023-02-21T11:15:32.096Z,10.60
2023-02-21T11:18:12.473Z,10.56
2023-02-21T11:20:39.473Z,10.53
2023-02-21T11:23:19.840Z,10.51
2023-02-21T11:25:47.389Z,10.46
2023-02-21T11:28:14.053Z,10.41
2023-02-21T11:30:52.767Z,10.39
2023-02-21T11:33:24.035Z,10.32
2023-02-21T11:35:52.891Z,10.25
2023-02-21T11:38:35.973Z,10.19
2023-02-21T11:41:16.262Z,10.16
2023-02-21T11:43:52.191Z,10.18
2023-02-21T11:46:35.784Z,10.17
2023-02-21T11:49:19.374Z,10.14
2023-02-21T11:51:52.153Z,10.11
2023-02-21T11:54:27.875Z,10.10
2023-02-21T11:57:17.421Z,10.11
2023-02-21T11:59:56.909Z,10.15
2023-02-21T12:02:37.820Z,10.18
2023-02-21T12:05:14.839Z,10.21
2023-02-21T12:07:58.132Z,10.27
2023-02-21T12:10:47.425Z,10.35
2023-02-21T12:13:31.028Z,10.44
2023-02-21T12:16:22.349Z,10.51
2023-02-21T12:19:11.911Z,10.57
2023-02-21T12:21:38.868Z,10.56
2023-02-21T12:24:17.371Z,10.53
2023-02-21T12:26:55.477Z,10.47
2023-02-21T12:29:28.307Z,10.43
2023-02-21T12:32:09.171Z,10.37
2023-02-21T12:35:13.761Z,10.27
2023-02-21T12:37:55.732Z,10.18
2023-02-21T12:40:59.358Z,10.10
2023-02-21T12:43:44.377Z,10.01
2023-02-21T12:46:31.593Z,9.93
2023-02-21T12:49:27.507Z,9.86
2023-02-21T12:52:15.371Z,9.80
2023-02-21T12:55:07.077Z,9.80
2023-02-21T12:58:01.624Z,9.83
2023-02-21T13:00:54.892Z,9.89
2023-02-21T13:03:39.602Z,9.96
2023-02-21T13:06:15.216Z,10.04
2023-02-21T13:08:59.321Z,10.11
2023-02-21T13:11:33.213Z,10.15
2023-02-21T13:14:00.850Z,10.19
2023-02-21T13:16:28.218Z,10.21
2023-02-21T13:19:05.895Z,10.24
2023-02-21T13:21:45.654Z,10.26
2023-02-21T13:24:41.664Z,10.24
2023-02-21T13:27:31.657Z,10.24
2023-02-21T13:30:23.725Z,10.23
2023-02-21T13:32:59.873Z,10.28
2023-02-21T13:35:36.674Z,10.36
2023-02-21T13:38:07.053Z,10.43
2023-02-21T13:40:38.672Z,10.50
2023-02-21T13:43:24.749Z,10.57
2023-02-21T13:45:53.316Z,10.61
2023-02-21T13:48:24.016Z,10.63
2023-02-21T13:50:54.212Z,10.61
2023-02-21T13:53:34.687Z,10.58
2023-02-21T13:56:07.817Z,10.54
2023-02-21T13:58:37.633Z,10.51
2023-02-21T14:01:40.197Z,10.49
2023-02-21T14:04:34.656Z,10.44
2023-02-21T14:07:02.908Z,10.37
2023-02-21T14:09:37.194Z,10.36
2023-02-21T14:12:05.945Z,10.39
2023-02-21T14:14:39.605Z,10.53
2023-02-21T14:17:13.108Z,10.66
2023-02-21T14:19:44.260Z,10.75
2023-02-21T14:22:20.524Z,10.80
2023-02-21T14:24:50.277Z,10.84
2023-02-21T14:27:16.862Z,10.88
2023-02-21T14:29:45.215Z,10.90
2023-02-21T14:32:12.145Z,10.90
2023-02-21T14:34:48.359Z,10.88
2023-02-21T14:37:46.765Z,10.86
2023-02-21T14:40:43.467Z,10.82
2023-02-21T14:43:22.384Z,10.76
2023-02-21T14:46:14.674Z,10.66
2023-02-21T14:48:53.139Z,10.57
2023-02-21T14:51:47.708Z,10.50
2023-02-21T14:54:23.381Z,10.43
2023-02-21T15:00:12.087Z,10.31
2023-02-21T15:02:52.825Z,10.28
2023-02-21T15:05:40.647Z,10.24
2023-02-21T15:08:07.559Z,10.19
2023-02-21T15:10:42.029Z,10.14
2023-02-21T15:13:23.634Z,10.11
2023-02-21T15:16:01.574Z,10.08
2023-02-21T15:18:35.052Z,10.07
2023-02-21T15:21:07.222Z,10.05
2023-02-21T15:23:35.231Z,10.04
2023-02-21T15:26:18.977Z,10.04
2023-02-21T15:28:46.738Z,10.05
2023-02-21T15:31:14.708Z,10.04
2023-02-21T15:33:44.278Z,10.05
2023-02-21T15:36:22.103Z,10.07
2023-02-21T15:39:20.349Z,10.05
2023-02-21T15:41:50.262Z,9.96
2023-02-21T15:44:51.203Z,9.88
2023-02-21T15:47:22.539Z,9.78
2023-02-21T15:50:01.833Z,9.72
2023-02-21T15:52:46.678Z,9.66
2023-02-21T15:55:20.400Z,9.61
2023-02-21T15:58:00.238Z,9.56
2023-02-21T16:00:29.461Z,9.51
2023-02-21T16:03:24.417Z,9.46
2023-02-21T16:05:51.744Z,9.39
2023-02-21T16:08:18.892Z,9.32
2023-02-21T16:10:46.126Z,9.25
2023-02-21T16:13:14.858Z,9.17
2023-02-21T16:15:43.499Z,9.08
2023-02-21T16:18:18.161Z,8.99
2023-02-21T16:20:46.048Z,8.92
2023-02-21T16:23:30.278Z,8.86
2023-02-21T16:26:13.625Z,8.83
2023-02-21T16:28:41.573Z,8.79
2023-02-21T16:31:15.056Z,8.78
2023-02-21T16:33:42.148Z,8.75
2023-02-21T16:36:27.548Z,8.73
2023-02-21T16:38:56.510Z,8.68
2023-02-21T16:41:23.996Z,8.64
2023-02-21T16:43:51.043Z,8.60
2023-02-21T16:46:32.039Z,8.55
2023-02-21T16:48:59.966Z,8.50
2023-02-21T16:51:33.939Z,8.44
2023-02-21T16:54:01.616Z,8.39
2023-02-21T16:56:28.536Z,8.35
2023-02-21T16:58:57.377Z,8.33
2023-02-21T17:01:26.577Z,8.32
2023-02-21T17:03:54.045Z,8.32
2023-02-21T17:06:24.352Z,8.31
2023-02-21T17:08:51.767Z,8.33
2023-02-21T17:11:18.870Z,8.33
2023-02-21T17:13:45.816Z,8.34
2023-02-21T17:16:12.706Z,8.33
2023-02-21T17:18:39.589Z,8.30
2023-02-21T17:21:06.419Z,8.27
2023-02-21T17:23:33.236Z,8.23
2023-02-21T17:26:00.116Z,8.18
2023-02-21T17:28:26.909Z,8.13
2023-02-21T17:30:53.897Z,8.09
2023-02-21T17:33:20.661Z,8.06
2023-02-21T17:35:47.451Z,8.04
2023-02-21T17:38:14.266Z,8.01
2023-02-21T17:40:41.164Z,7.99
2023-02-21T17:43:09.191Z,7.97
2023-02-21T17:45:36.588Z,7.96
2023-02-21T17:48:05.739Z,7.94
2023-02-21T17:50:33.105Z,7.92
2023-02-21T17:53:00.686Z,7.90
2023-02-21T17:55:29.834Z,7.87
2023-02-21T17:57:57.704Z,7.82
2023-02-21T18:00:27.541Z,7.78
2023-02-21T18:02:55.204Z,7.73
2023-02-21T18:05:22.950Z,7.69
2023-02-21T18:07:52.493Z,7.64
2023-02-21T18:10:22.180Z,7.64
2023-02-21T18:12:51.198Z,7.65
2023-02-21T18:15:20.857Z,7.68
2023-02-21T18:17:47.939Z,7.72
2023-02-21T18:20:16.083Z,7.77
2023-02-21T18:22:43.314Z,7.83
2023-02-21T18:25:11.221Z,7.88
2023-02-21T18:27:38.177Z,7.93
2023-02-21T18:30:06.280Z,7.97
2023-02-21T18:32:33.424Z,8.01
2023-02-21T18:35:00.848Z,8.03
2023-02-21T18:37:27.765Z,8.03
2023-02-21T18:39:55.726Z,8.03
2023-02-21T18:42:24.239Z,8.02
2023-02-21T18:44:52.556Z,8.01
2023-02-21T18:47:20.199Z,8.01
2023-02-21T18:49:48.928Z,8.01
2023-02-21T18:52:16.804Z,8.03
2023-02-21T18:54:45.815Z,8.04
2023-02-21T18:57:13.159Z,8.05
2023-02-21T18:59:40.296Z,8.07
2023-02-21T19:02:08.793Z,8.07
2023-02-21T19:04:35.564Z,8.04
2023-02-21T19:07:07.612Z,8.02
2023-02-21T19:09:35.681Z,8.00
2023-02-21T19:12:03.766Z,7.97
2023-02-21T19:14:31.036Z,7.94
2023-02-21T19:16:57.758Z,7.91
2023-02-21T19:19:24.475Z,7.87
2023-02-21T19:21:51.276Z,7.82
2023-02-21T19:24:18.429Z,7.79
2023-02-21T19:26:45.341Z,7.77
2023-02-21T19:29:12.696Z,7.74
2023-02-21T19:31:39.644Z,7.73
2023-02-21T19:34:06.842Z,7.73
2023-02-21T19:36:39.967Z,7.73
2023-02-21T19:39:08.636Z,7.73
2023-02-21T19:41:40.591Z,7.70
2023-02-21T19:44:08.485Z,7.68
2023-02-21T19:46:35.715Z,7.66
2023-02-21T19:49:07.120Z,7.63
2023-02-21T19:51:34.330Z,7.59
2023-02-21T19:54:01.477Z,7.54
2023-02-21T19:56:28.587Z,7.50
2023-02-21T19:58:55.622Z,7.43
2023-02-21T20:01:23.357Z,7.36
2023-02-21T20:03:51.064Z,7.28
2023-02-21T20:06:18.789Z,7.23
2023-02-21T20:08:48.908Z,7.19
2023-02-21T20:11:17.922Z,7.15
2023-02-21T20:13:45.485Z,7.12
2023-02-21T20:16:15.702Z,7.10
2023-02-21T20:18:46.466Z,7.05
2023-02-21T20:21:29.237Z,7.00
2023-02-21T20:23:58.161Z,6.95
2023-02-21T20:26:25.090Z,6.92
2023-02-21T20:28:53.072Z,6.88
2023-02-21T20:31:21.355Z,6.84
2023-02-21T20:33:48.455Z,6.81
2023-02-21T20:36:16.727Z,6.76
2023-02-21T20:38:44.104Z,6.71
2023-02-21T20:41:14.035Z,6.65
2023-02-21T20:43:41.608Z,6.60
2023-02-21T20:46:11.424Z,6.54
2023-02-21T20:48:39.116Z,6.48
2023-02-21T20:51:08.684Z,6.42
2023-02-21T20:53:36.769Z,6.36
2023-02-21T20:56:05.239Z,6.30
2023-02-21T20:58:32.115Z,6.26
2023-02-21T21:00:58.803Z,6.19
2023-02-21T21:03:29.550Z,6.15
2023-02-21T21:05:56.799Z,6.12
2023-02-21T21:08:23.644Z,6.11
2023-02-21T21:10:51.210Z,6.11
2023-02-21T21:13:17.983Z,6.14
2023-02-21T21:15:44.856Z,6.17
2023-02-21T21:18:12.408Z,6.19
2023-02-21T21:20:39.174Z,6.19
2023-02-21T21:23:07.239Z,6.20
2023-02-21T21:25:34.802Z,6.20
2023-02-21T21:28:02.480Z,6.20
2023-02-21T21:30:30.719Z,6.19
2023-02-21T21:32:58.196Z,6.15
2023-02-21T21:35:30.169Z,6.11
2023-02-21T21:37:58.836Z,6.07
2023-02-21T21:40:28.964Z,6.02
2023-02-21T21:42:56.159Z,5.98
2023-02-21T21:45:26.340Z,5.93
2023-02-21T21:47:56.500Z,5.86
2023-02-21T21:50:23.274Z,5.78
2023-02-21T21:52:58.925Z,5.72
2023-02-21T21:55:28.788Z,5.67
2023-02-21T21:57:56.388Z,5.64
2023-02-21T22:00:28.774Z,5.61
2023-02-21T22:02:58.237Z,5.59
2023-02-21T22:05:30.763Z,5.57
2023-02-21T22:07:58.387Z,5.58
2023-02-21T22:10:27.003Z,5.57
2023-02-21T22:12:56.859Z,5.55
2023-02-21T22:15:25.093Z,5.54
2023-02-21T22:17:52.729Z,5.52
2023-02-21T22:20:28.504Z,5.48
2023-02-21T22:22:59.453Z,5.45
2023-02-21T22:25:28.482Z,5.43
2023-02-21T22:27:55.358Z,5.41
2023-02-21T22:30:23.012Z,5.38
2023-02-21T22:32:50.144Z,5.35
2023-02-21T22:35:19.695Z,5.31
2023-02-21T22:37:51.076Z,5.28
2023-02-21T22:40:24.325Z,5.25
2023-02-21T22:42:57.230Z,5.23
2023-02-21T22:45:24.620Z,5.22
2023-02-21T22:47:54.016Z,5.21
2023-02-21T22:50:23.148Z,5.22
2023-02-21T22:52:59.789Z,5.23
2023-02-21T22:55:27.698Z,5.24
2023-02-21T22:57:59.202Z,5.25
2023-02-21T23:00:33.425Z,5.26
2023-02-21T23:03:13.333Z,5.27
2023-02-21T23:05:45.991Z,5.26
2023-02-21T23:08:15.998Z,5.26
2023-02-21T23:10:43.679Z,5.25
2023-02-21T23:13:18.487Z,5.23
2023-02-21T23:15:46.189Z,5.21
2023-02-21T23:18:20.903Z,5.19
2023-02-21T23:20:56.949Z,5.18
2023-02-21T23:23:26.465Z,5.17
2023-02-21T23:25:56.605Z,5.15
2023-02-21T23:28:23.335Z,5.15
2023-02-21T23:30:50.434Z,5.15
2023-02-21T23:33:23.119Z,5.16
2023-02-21T23:35:51.807Z,5.17
2023-02-21T23:38:22.522Z,5.18
2023-02-21T23:40:56.336Z,5.19
2023-02-21T23:43:30.931Z,5.21
2023-02-21T23:45:59.855Z,5.22
2023-02-21T23:48:26.839Z,5.23
2023-02-21T23:50:58.167Z,5.22
2023-02-21T23:53:28.290Z,5.22
2023-02-21T23:55:57.917Z,5.22
2023-02-21T23:58:28.008Z,5.21
